METAR AND TAF INFORMATION
METAR FOR HEMM
ADDS - METARS form results

(0721 UTC 26 March 2019)
Data provider http://aviationweather.gov/metar/data/
 
Forecast for: HEMM (MERSA MATRUH (MI, EG)
Text: TAF HEMM 260500Z 2606/2712 29015KT 9999 FEW020
Forecast period: 0600 UTC 26 March 2019 to 1200 UTC 27 March 2019
Forecast type: FROM: standard forecast or significant change
Winds: from the WNW (290 degrees) at 17 MPH (15 knots; 7.7 m/s)
Visibility: 6 or more miles 10+ km)
Ceiling: at least 12,000 feet AGL
Clouds: few clouds at 2000 feet AGL
Weather: no significant weather forecast for this period

 AIRPORT MAP

 RUNWAY INFORMATION
Runway 06 Runway length 9843 ft Runway width 148 ft
Runway elevation 94 ft Runway displaced threshold 160 ft Runway heading 60
Runway 24 Runway length 9843 ft Runway width 148 ft
Runway elevation 94 ft Runway displaced threshold 160 ft Runway heading 240
Runway 15 Runway length 9843 ft Runway width 148 ft
Runway elevation 94 ft Runway displaced threshold 0 ft Runway heading 150
Runway 33 Runway length 9843 ft Runway width 148 ft
Runway elevation 94 ft Runway displaced threshold 0 ft Runway heading 330

 AIRPORT FREQUENCIES
Type RDO Name MATRUH RDO Frequency 579 MHZ
Type TWR Name MATRUH TWR Frequency 118.1 MHZ

 AIRPORT NEAR NAVIGATION AIDS



Powered by Virtual Airlines Manager [v2.6.2]